This is the latest recevied weather packets stored in our database for station/object EA6MW-10. If no packets are shown the sender has not sent any weather packets the latest 1 day(s).
| Time | Temp. | Humidity | Pressure | Rain* | Wind** | Luminosity | Snow |
|---|---|---|---|---|---|---|---|
| 1778113502 | 12.22° C | 85% | 1013.6 hPa | - | - | - | - |
| 1778112601 | 12.22° C | 85% | 1013.7 hPa | - | - | - | - |
| 1778111701 | 12.78° C | 83% | 1013.7 hPa | - | - | - | - |
| 1778107199 | 13.33° C | 84% | 1013.6 hPa | - | - | - | - |
| 1778102698 | 14.44° C | 81% | 1013.9 hPa | - | - | - | - |
| 1778099997 | 14.44° C | 80% | 1013.9 hPa | - | - | - | - |
| 1778090994 | 17.22° C | 76% | 1012.5 hPa | - | - | - | - |
| 1778089193 | 17.78° C | 75% | 1012.2 hPa | - | - | - | - |
| 1778088293 | 18.89° C | 72% | 1012.3 hPa | - | - | - | - |
| 1778083791 | 21.11° C | 64% | 1012.1 hPa | - | - | - | - |
| 1778080190 | 20.56° C | 67% | 1012.1 hPa | - | - | - | - |
| 1778074788 | 18.89° C | 70% | 1012.9 hPa | - | - | - | - |
| 1778073888 | 20° C | 64% | 1012.7 hPa | - | - | - | - |
| 1778071187 | 22.78° C | 57% | 1012.5 hPa | - | - | - | - |
| 1778067586 | 23.89° C | 54% | 1012.6 hPa | - | - | - | - |
| 1778065785 | 22.78° C | 54% | 1012.8 hPa | - | - | - | - |
| 1778064885 | 30° C | 42% | 1012.9 hPa | - | - | - | - |
| 1778063984 | 28.33° C | 45% | 1013 hPa | - | - | - | - |
| 1778060383 | 27.22° C | 47% | 1013.1 hPa | - | - | - | - |
| 1778059483 | 27.78° C | 45% | 1013 hPa | - | - | - | - |
| 1778058583 | 23.89° C | 54% | 1013 hPa | - | - | - | - |
| 1778056782 | 29.44° C | 42% | 1012.9 hPa | - | - | - | - |
| 1778055882 | 30.56° C | 41% | 1013.1 hPa | - | - | - | - |
| 1778054981 | 29.44° C | 42% | 1013 hPa | - | - | - | - |
| 1778054081 | 28.33° C | 44% | 1013 hPa | - | - | - | - |
* Rain since midnight (hover to see other rain measurements)
** Current wind speed in m/s (hover to see current wind gust speed)